Terminal Aerodrome Forecast
Issued by NWS Cleveland, OH

Home | Current Version | Previous Version | Text Only | Print | Product List | Glossary On
Versions: 1 2 3 4 5 6 7 8 9 10 11 12 13 14 15 16 17 18 19 20 21 22 23 24 25 26
367
FTUS41 KCLE 251136
TAFERI
TAF
KERI 251136Z 2512/2612 19020G40KT P6SM SCT025 OVC040
     FM251400 24025G45KT P6SM SCT015 OVC025
      TEMPO 2514/2515 4SM -SHRA BKN015
     FM251700 25020G35KT P6SM SCT025 BKN035
     FM260000 24010KT P6SM SKC=

USA.gov is the U.S. government's official web portal to all federal, state and local government web resources and services.